Time;durP1;ratioP1;P1;durP2;ratioP2;P2;SDS_P1;SDS_P2;PMS_P1;PMS_P2;Temp;Humidity;BMP_temperature;BMP_pressure;BME280_temperature;BME280_humidity;BME280_pressure;Samples;Min_cycle;Max_cycle;Signal;HPM_P1;HPM_P2
2023/05/09 00:00:45;;;;;;;0.20;0.20;;;;;;;;;;5010599;28;20069;-77
2023/05/09 00:03:11;;;;;;;0.10;0.10;;;;;;;;;;4991283;28;20787;-76
2023/05/09 00:05:38;;;;;;;1.45;0.47;;;;;;;;;;5002035;28;20113;-76
2023/05/09 00:08:04;;;;;;;0.10;0.10;;;;;;;;;;5008268;28;20116;-76
2023/05/09 00:10:31;;;;;;;0.17;0.17;;;;;;;;;;5010860;28;20066;-77
2023/05/09 00:12:58;;;;;;;0.20;0.20;;;;;;;;;;4994180;28;20054;-77
2023/05/09 00:15:28;;;;;;;0.10;0.10;;;;;;;;;;5001874;28;20053;-76
2023/05/09 00:17:54;;;;;;;0.10;0.10;;;;;;;;;;5013463;28;20097;-77
2023/05/09 00:20:21;;;;;;;0.45;0.45;;;;;;;;;;5007103;28;20065;-76
2023/05/09 00:22:47;;;;;;;0.20;0.20;;;;;;;;;;5013462;28;20055;-77
2023/05/09 00:25:14;;;;;;;0.77;0.47;;;;;;;;;;5002903;28;20054;-76
2023/05/09 00:27:40;;;;;;;0.75;0.60;;;;;;;;;;5003325;28;20055;-77
2023/05/09 00:30:07;;;;;;;0.10;0.10;;;;;;;;;;5023948;28;20073;-76
2023/05/09 00:32:33;;;;;;;1.17;0.63;;;;;;;;;;5003571;28;20053;-77
2023/05/09 00:35:03;;;;;;;0.10;0.10;;;;;;;;;;5003951;28;20100;-76
2023/05/09 00:37:30;;;;;;;0.30;0.30;;;;;;;;;;4969926;28;20046;-75
2023/05/09 00:39:56;;;;;;;0.20;0.20;;;;;;;;;;4997733;28;20054;-77
2023/05/09 00:42:23;;;;;;;0.40;0.40;;;;;;;;;;5003641;28;20061;-75
2023/05/09 00:44:49;;;;;;;0.10;0.10;;;;;;;;;;5002210;28;20353;-75
2023/05/09 00:47:15;;;;;;;0.10;0.10;;;;;;;;;;4993863;28;20058;-77
2023/05/09 00:49:42;;;;;;;0.35;0.35;;;;;;;;;;5001955;28;20054;-75
2023/05/09 00:52:08;;;;;;;0.30;0.30;;;;;;;;;;5005930;28;20065;-77
2023/05/09 00:54:35;;;;;;;0.10;0.10;;;;;;;;;;5013542;28;20046;-76
2023/05/09 00:57:01;;;;;;;0.20;0.20;;;;;;;;;;5015341;28;20272;-77
2023/05/09 00:59:28;;;;;;;0.77;0.52;;;;;;;;;;5022826;28;20058;-75
2023/05/09 01:01:55;;;;;;;0.13;0.13;;;;;;;;;;5019742;28;20058;-76
2023/05/09 01:04:21;;;;;;;0.10;0.10;;;;;;;;;;5005737;28;20054;-74
2023/05/09 01:06:53;;;;;;;0.50;0.50;;;;;;;;;;5006437;28;20061;-76
2023/05/09 01:09:26;;;;;;;0.38;0.30;;;;;;;;;;5003983;28;20501;-76
2023/05/09 01:11:58;;;;;;;0.20;0.20;;;;;;;;;;5001213;28;20160;-76
2023/05/09 01:14:32;;;;;;;0.30;0.30;;;;;;;;;;5001878;28;20552;-75
2023/05/09 01:17:10;;;;;;;0.10;0.10;;;;;;;;;;4984588;28;20681;-76
2023/05/09 01:19:55;;;;;;;0.10;0.10;;;;;;;;;;4995871;28;20128;-75
2023/05/09 01:22:25;;;;;;;0.38;0.35;;;;;;;;;;4983426;28;20063;-77
2023/05/09 01:24:51;;;;;;;0.15;0.15;;;;;;;;;;5013495;28;20141;-76
2023/05/09 01:27:27;;;;;;;0.10;0.10;;;;;;;;;;5001629;28;20599;-75
2023/05/09 01:29:56;;;;;;;0.47;0.28;;;;;;;;;;5009983;28;20046;-77
2023/05/09 01:32:24;;;;;;;0.10;0.10;;;;;;;;;;5024862;28;20085;-76
2023/05/09 01:34:51;;;;;;;0.10;0.10;;;;;;;;;;5009445;28;20051;-76
2023/05/09 01:37:21;;;;;;;0.40;0.40;;;;;;;;;;5014760;28;20854;-75
2023/05/09 01:39:50;;;;;;;0.10;0.10;;;;;;;;;;5023188;28;20113;-76
2023/05/09 01:42:18;;;;;;;0.10;0.10;;;;;;;;;;5025137;28;20513;-75
2023/05/09 01:44:45;;;;;;;0.43;0.43;;;;;;;;;;4969630;28;20094;-76
2023/05/09 01:47:15;;;;;;;1.20;0.68;;;;;;;;;;4993230;28;20157;-75
2023/05/09 01:49:42;;;;;;;0.77;0.77;;;;;;;;;;5006428;28;20528;-77
2023/05/09 01:52:13;;;;;;;0.10;0.10;;;;;;;;;;5026492;28;20049;-78
2023/05/09 01:54:41;;;;;;;0.20;0.20;;;;;;;;;;4984058;28;20203;-76
2023/05/09 01:57:08;;;;;;;0.38;0.38;;;;;;;;;;5006947;28;20062;-77
2023/05/09 01:59:37;;;;;;;0.20;0.20;;;;;;;;;;5005513;28;20054;-75
2023/05/09 02:02:05;;;;;;;0.30;0.30;;;;;;;;;;5007306;28;20082;-76
2023/05/09 02:04:32;;;;;;;0.13;0.13;;;;;;;;;;5008204;28;20792;-77
2023/05/09 02:06:59;;;;;;;0.10;0.10;;;;;;;;;;4989677;28;20054;-75
2023/05/09 02:09:26;;;;;;;0.10;0.10;;;;;;;;;;5006445;28;20050;-77
2023/05/09 02:11:53;;;;;;;0.20;0.20;;;;;;;;;;5007207;28;20090;-76
2023/05/09 02:14:19;;;;;;;0.10;0.10;;;;;;;;;;4998201;28;20055;-76
2023/05/09 02:16:46;;;;;;;0.40;0.40;;;;;;;;;;5002642;28;20677;-75
2023/05/09 02:19:12;;;;;;;0.20;0.20;;;;;;;;;;5002795;28;20129;-76
2023/05/09 02:21:39;;;;;;;0.10;0.10;;;;;;;;;;5024969;28;20054;-77
2023/05/09 02:24:05;;;;;;;0.28;0.22;;;;;;;;;;5007024;28;20050;-77
2023/05/09 02:26:32;;;;;;;0.10;0.10;;;;;;;;;;5006632;28;20058;-76
2023/05/09 02:28:59;;;;;;;0.10;0.10;;;;;;;;;;5022341;28;20115;-76
2023/05/09 02:31:26;;;;;;;0.30;0.30;;;;;;;;;;5026369;28;20064;-77
2023/05/09 02:33:53;;;;;;;0.22;0.22;;;;;;;;;;5026394;28;20064;-75
2023/05/09 02:36:21;;;;;;;0.10;0.10;;;;;;;;;;5004563;28;20101;-76
2023/05/09 02:38:47;;;;;;;0.10;0.10;;;;;;;;;;5009533;28;20058;-75
2023/05/09 02:41:14;;;;;;;0.10;0.10;;;;;;;;;;5006924;28;20047;-77
2023/05/09 02:43:40;;;;;;;0.10;0.10;;;;;;;;;;4988919;28;20054;-76
2023/05/09 02:46:08;;;;;;;0.25;0.25;;;;;;;;;;5006419;28;20164;-76
2023/05/09 02:48:35;;;;;;;0.10;0.10;;;;;;;;;;5001865;28;20149;-77
2023/05/09 02:51:01;;;;;;;0.10;0.10;;;;;;;;;;5004325;28;20599;-77
2023/05/09 02:53:27;;;;;;;0.10;0.10;;;;;;;;;;5007633;28;20061;-75
2023/05/09 02:55:54;;;;;;;0.50;0.50;;;;;;;;;;5003819;28;20058;-76
2023/05/09 02:58:20;;;;;;;0.22;0.20;;;;;;;;;;5008425;28;20081;-76
2023/05/09 03:00:47;;;;;;;0.20;0.20;;;;;;;;;;4986236;28;20055;-77
2023/05/09 03:03:13;;;;;;;0.22;0.20;;;;;;;;;;5019896;28;21030;-77
2023/05/09 03:05:40;;;;;;;0.35;0.35;;;;;;;;;;5012826;28;20058;-76
2023/05/09 03:08:06;;;;;;;0.20;0.20;;;;;;;;;;5002700;28;20081;-75
2023/05/09 03:10:33;;;;;;;0.30;0.30;;;;;;;;;;5005621;28;20054;-76
2023/05/09 03:12:59;;;;;;;0.10;0.10;;;;;;;;;;5005004;28;20054;-77
2023/05/09 03:15:26;;;;;;;0.10;0.10;;;;;;;;;;5004570;28;20060;-76
2023/05/09 03:17:52;;;;;;;0.95;0.93;;;;;;;;;;5008077;28;20532;-76
2023/05/09 03:20:19;;;;;;;0.40;0.40;;;;;;;;;;5024856;28;20153;-74
2023/05/09 03:22:47;;;;;;;0.10;0.10;;;;;;;;;;5003808;28;20066;-76
2023/05/09 03:25:13;;;;;;;0.10;0.10;;;;;;;;;;5010843;28;20047;-76
2023/05/09 03:27:40;;;;;;;0.52;0.47;;;;;;;;;;4991754;28;20062;-75
2023/05/09 03:30:07;;;;;;;0.10;0.10;;;;;;;;;;4984792;28;20054;-77
2023/05/09 03:32:33;;;;;;;0.10;0.10;;;;;;;;;;4997070;28;20141;-76
2023/05/09 03:35:00;;;;;;;0.10;0.10;;;;;;;;;;4989975;28;20109;-75
2023/05/09 03:37:26;;;;;;;0.10;0.10;;;;;;;;;;5004732;28;20050;-77
2023/05/09 03:39:53;;;;;;;0.10;0.10;;;;;;;;;;5024811;28;20066;-76
2023/05/09 03:42:20;;;;;;;0.13;0.13;;;;;;;;;;5024147;28;20104;-76
2023/05/09 03:44:46;;;;;;;0.10;0.10;;;;;;;;;;5009811;28;20512;-76
2023/05/09 03:47:13;;;;;;;0.15;0.15;;;;;;;;;;5004610;28;20050;-76
2023/05/09 03:49:40;;;;;;;0.17;0.17;;;;;;;;;;5009418;28;20509;-77
2023/05/09 03:52:06;;;;;;;0.17;0.17;;;;;;;;;;5004811;28;20085;-75
2023/05/09 03:54:33;;;;;;;0.13;0.13;;;;;;;;;;4985874;28;20659;-75
2023/05/09 03:56:59;;;;;;;0.80;0.60;;;;;;;;;;5004531;28;20150;-77
2023/05/09 03:59:26;;;;;;;0.13;0.13;;;;;;;;;;5015503;28;20086;-76
2023/05/09 04:01:52;;;;;;;0.10;0.10;;;;;;;;;;5010190;28;20051;-77
2023/05/09 04:04:20;;;;;;;0.30;0.15;;;;;;;;;;4984250;28;20062;-75
2023/05/09 04:06:46;;;;;;;0.10;0.10;;;;;;;;;;4998512;28;20531;-75
2023/05/09 04:09:13;;;;;;;0.10;0.10;;;;;;;;;;4999502;28;20050;-77
2023/05/09 04:11:39;;;;;;;0.25;0.25;;;;;;;;;;4984921;28;20065;-75
2023/05/09 04:14:06;;;;;;;0.10;0.10;;;;;;;;;;5003353;28;20050;-77
2023/05/09 04:16:32;;;;;;;0.10;0.10;;;;;;;;;;5003615;28;20057;-77
2023/05/09 04:18:59;;;;;;;0.10;0.10;;;;;;;;;;5011086;28;20504;-75
2023/05/09 04:21:25;;;;;;;0.10;0.10;;;;;;;;;;5011806;28;20082;-75
2023/05/09 04:23:52;;;;;;;0.10;0.10;;;;;;;;;;4998461;28;20061;-77
2023/05/09 04:26:20;;;;;;;0.17;0.17;;;;;;;;;;4987257;28;20058;-76
2023/05/09 04:28:47;;;;;;;0.20;0.20;;;;;;;;;;5011261;28;20108;-76
2023/05/09 04:31:13;;;;;;;0.10;0.10;;;;;;;;;;5004177;28;20046;-76
2023/05/09 04:33:40;;;;;;;0.10;0.10;;;;;;;;;;4985303;28;20062;-77
2023/05/09 04:36:06;;;;;;;0.10;0.10;;;;;;;;;;5003544;28;20054;-75
2023/05/09 04:38:33;;;;;;;0.20;0.20;;;;;;;;;;4987095;28;20065;-75
2023/05/09 04:41:00;;;;;;;0.20;0.20;;;;;;;;;;5004698;28;20062;-75
2023/05/09 04:43:26;;;;;;;0.10;0.10;;;;;;;;;;5006651;28;20062;-79
2023/05/09 04:45:53;;;;;;;0.10;0.10;;;;;;;;;;4991858;28;20058;-77
2023/05/09 04:50:54;;;;;;;0.10;0.10;;;;;;;;;;5484577;22;20058;-76
2023/05/09 04:53:21;;;;;;;0.60;0.60;;;;;;;;;;5003452;28;20058;-76
2023/05/09 04:55:47;;;;;;;0.32;0.30;;;;;;;;;;5017769;28;20065;-76
2023/05/09 04:58:14;;;;;;;0.10;0.10;;;;;;;;;;5020738;28;20064;-76
2023/05/09 05:00:40;;;;;;;0.20;0.20;;;;;;;;;;5006684;28;20064;-76
2023/05/09 05:03:07;;;;;;;0.65;0.25;;;;;;;;;;5024073;28;20065;-75
2023/05/09 05:05:33;;;;;;;0.30;0.30;;;;;;;;;;4997744;28;20531;-76
2023/05/09 05:08:03;;;;;;;0.15;0.15;;;;;;;;;;5002885;28;20065;-76
2023/05/09 05:10:29;;;;;;;0.10;0.10;;;;;;;;;;5006621;28;20058;-76
2023/05/09 05:12:56;;;;;;;0.10;0.10;;;;;;;;;;5006801;28;20562;-76
2023/05/09 05:15:22;;;;;;;0.10;0.10;;;;;;;;;;5022754;28;20172;-76
2023/05/09 05:17:49;;;;;;;2.83;0.68;;;;;;;;;;5023763;28;20795;-76
2023/05/09 05:20:15;;;;;;;0.20;0.20;;;;;;;;;;4988221;28;20058;-76
2023/05/09 05:22:41;;;;;;;0.10;0.10;;;;;;;;;;5005531;28;20062;-76
2023/05/09 05:25:08;;;;;;;0.10;0.10;;;;;;;;;;5014390;28;20057;-76
2023/05/09 05:27:34;;;;;;;0.10;0.10;;;;;;;;;;5007391;28;20427;-76
2023/05/09 05:30:01;;;;;;;0.10;0.10;;;;;;;;;;5025142;28;20057;-76
2023/05/09 05:32:27;;;;;;;0.77;0.77;;;;;;;;;;5025332;28;20053;-76
2023/05/09 05:34:54;;;;;;;0.50;0.50;;;;;;;;;;5021739;28;20058;-76
2023/05/09 05:37:20;;;;;;;0.10;0.10;;;;;;;;;;5024798;28;20050;-75
2023/05/09 05:39:47;;;;;;;0.40;0.40;;;;;;;;;;5005586;28;21300;-76
2023/05/09 05:42:13;;;;;;;0.10;0.10;;;;;;;;;;5019074;28;20064;-76
2023/05/09 05:44:39;;;;;;;0.10;0.10;;;;;;;;;;5001361;28;20062;-76
2023/05/09 05:47:06;;;;;;;0.47;0.47;;;;;;;;;;5024094;28;20539;-76
2023/05/09 05:49:32;;;;;;;0.75;0.50;;;;;;;;;;5018346;28;20065;-76
2023/05/09 05:51:59;;;;;;;0.63;0.63;;;;;;;;;;5019281;28;20562;-76
2023/05/09 05:54:25;;;;;;;0.10;0.10;;;;;;;;;;5023976;28;20151;-77
2023/05/09 05:56:52;;;;;;;0.25;0.25;;;;;;;;;;5025146;28;20058;-76
2023/05/09 05:59:18;;;;;;;0.45;0.40;;;;;;;;;;5024898;28;20052;-76
2023/05/09 06:01:45;;;;;;;0.20;0.20;;;;;;;;;;5025547;28;20819;-77
2023/05/09 06:04:11;;;;;;;0.30;0.30;;;;;;;;;;5024417;28;20436;-77
2023/05/09 06:06:37;;;;;;;0.55;0.43;;;;;;;;;;5015524;28;20755;-77
2023/05/09 06:09:04;;;;;;;12.75;0.47;;;;;;;;;;5006257;28;20139;-76
2023/05/09 06:11:31;;;;;;;0.10;0.10;;;;;;;;;;5007291;28;20068;-76
2023/05/09 06:14:00;;;;;;;1.90;1.33;;;;;;;;;;5004782;28;20116;-76
2023/05/09 06:16:26;;;;;;;0.10;0.10;;;;;;;;;;5027704;28;20065;-78
2023/05/09 06:18:56;;;;;;;0.10;0.10;;;;;;;;;;5022428;28;20062;-78
2023/05/09 06:21:22;;;;;;;0.20;0.20;;;;;;;;;;5023214;28;20058;-78
2023/05/09 06:23:49;;;;;;;0.50;0.50;;;;;;;;;;5024511;28;20672;-77
2023/05/09 06:26:33;;;;;;;0.10;0.10;;;;;;;;;;5022769;28;20056;-77
2023/05/09 06:28:59;;;;;;;0.10;0.10;;;;;;;;;;5024673;28;20062;-77
2023/05/09 06:31:26;;;;;;;0.13;0.13;;;;;;;;;;5022700;28;20058;-77
2023/05/09 06:33:52;;;;;;;0.13;0.13;;;;;;;;;;5023587;28;20054;-77
2023/05/09 06:36:19;;;;;;;0.20;0.20;;;;;;;;;;5024374;28;20053;-77
2023/05/09 06:38:45;;;;;;;0.43;0.43;;;;;;;;;;5024821;28;20158;-77
2023/05/09 06:41:11;;;;;;;0.63;0.47;;;;;;;;;;5023213;28;20089;-77
2023/05/09 06:43:38;;;;;;;0.43;0.28;;;;;;;;;;5024411;28;20161;-77
2023/05/09 06:46:05;;;;;;;0.50;0.50;;;;;;;;;;5006756;28;20127;-78
2023/05/09 06:48:31;;;;;;;0.10;0.10;;;;;;;;;;5022427;28;20065;-77
2023/05/09 06:50:58;;;;;;;0.10;0.10;;;;;;;;;;5012628;28;20399;-77
2023/05/09 06:53:24;;;;;;;0.10;0.10;;;;;;;;;;5022612;28;20046;-77
2023/05/09 06:55:50;;;;;;;0.10;0.10;;;;;;;;;;5020853;28;20049;-77
2023/05/09 06:58:17;;;;;;;0.20;0.20;;;;;;;;;;5013089;28;20050;-78
2023/05/09 07:00:43;;;;;;;0.10;0.10;;;;;;;;;;5022475;28;20180;-77
2023/05/09 07:03:10;;;;;;;0.30;0.30;;;;;;;;;;5023402;28;20069;-76
2023/05/09 07:05:37;;;;;;;0.90;0.75;;;;;;;;;;5010113;28;20057;-77
2023/05/09 07:08:03;;;;;;;0.47;0.43;;;;;;;;;;5017314;28;20054;-77
2023/05/09 07:10:29;;;;;;;0.55;0.40;;;;;;;;;;5019699;28;20496;-77
2023/05/09 07:12:56;;;;;;;0.20;0.20;;;;;;;;;;5020101;28;20613;-77
2023/05/09 07:15:22;;;;;;;0.70;0.50;;;;;;;;;;5017348;28;20064;-77
2023/05/09 07:18:06;;;;;;;0.77;0.43;;;;;;;;;;5023659;28;20054;-79
2023/05/09 07:20:33;;;;;;;0.60;0.55;;;;;;;;;;5020142;28;20058;-77
2023/05/09 07:23:01;;;;;;;0.77;0.43;;;;;;;;;;5004469;28;20149;-78
2023/05/09 07:25:27;;;;;;;0.20;0.20;;;;;;;;;;5018131;28;20064;-77
2023/05/09 07:27:54;;;;;;;0.65;0.60;;;;;;;;;;5020237;28;20054;-78
2023/05/09 07:30:20;;;;;;;2.83;0.38;;;;;;;;;;5021367;28;20060;-76
2023/05/09 07:32:46;;;;;;;0.20;0.20;;;;;;;;;;5017848;28;20049;-78
2023/05/09 07:35:12;;;;;;;0.43;0.25;;;;;;;;;;5021273;28;20054;-76
2023/05/09 07:37:39;;;;;;;1.58;1.48;;;;;;;;;;5024344;28;20064;-77
2023/05/09 07:40:06;;;;;;;0.43;0.40;;;;;;;;;;5021307;28;21580;-76
2023/05/09 07:42:32;;;;;;;0.10;0.10;;;;;;;;;;5022186;28;20061;-77
2023/05/09 07:44:59;;;;;;;0.35;0.35;;;;;;;;;;5023397;28;20049;-76
2023/05/09 07:47:25;;;;;;;0.40;0.40;;;;;;;;;;5021560;28;20054;-77
2023/05/09 07:52:22;;;;;;;0.32;0.30;;;;;;;;;;4985584;28;20065;-77
2023/05/09 07:54:53;;;;;;;6.13;1.00;;;;;;;;;;4979072;28;20066;-77
2023/05/09 07:57:19;;;;;;;0.10;0.10;;;;;;;;;;5003334;28;20152;-77
2023/05/09 07:59:46;;;;;;;0.10;0.10;;;;;;;;;;5000055;28;20889;-77
2023/05/09 08:02:13;;;;;;;0.25;0.20;;;;;;;;;;5001779;28;20062;-76
2023/05/09 08:04:40;;;;;;;0.40;0.38;;;;;;;;;;4998782;28;21031;-76
2023/05/09 08:07:07;;;;;;;0.57;0.40;;;;;;;;;;4999241;28;20061;-77
2023/05/09 08:09:34;;;;;;;0.25;0.25;;;;;;;;;;5003703;28;20072;-77
2023/05/09 08:42:00;;;;;;;0.10;0.10;;;;;;;;;;1466353;26;20077;-75
2023/05/09 08:44:28;;;;;;;1.50;1.25;;;;;;;;;;5043389;28;20061;-77
2023/05/09 08:46:57;;;;;;;0.20;0.20;;;;;;;;;;5026774;28;20124;-76
2023/05/09 08:49:24;;;;;;;0.40;0.40;;;;;;;;;;5041781;28;20088;-75
2023/05/09 08:51:51;;;;;;;0.32;0.32;;;;;;;;;;5039922;28;20049;-77
2023/05/09 08:54:17;;;;;;;0.45;0.38;;;;;;;;;;5045558;28;20053;-77
2023/05/09 08:56:47;;;;;;;0.38;0.35;;;;;;;;;;5021269;28;20531;-77
2023/05/09 08:59:15;;;;;;;0.10;0.10;;;;;;;;;;5044861;28;20053;-76
2023/05/09 09:01:41;;;;;;;0.25;0.25;;;;;;;;;;5038886;28;20050;-74
2023/05/09 09:04:08;;;;;;;0.30;0.30;;;;;;;;;;5045815;28;20064;-77
2023/05/09 09:06:35;;;;;;;0.30;0.30;;;;;;;;;;5030378;28;20064;-74
2023/05/09 09:09:10;;;;;;;0.50;0.50;;;;;;;;;;5043901;28;20053;-78
2023/05/09 09:11:39;;;;;;;0.20;0.20;;;;;;;;;;5044311;28;20056;-75
2023/05/09 09:14:11;;;;;;;0.10;0.10;;;;;;;;;;5045615;28;20053;-75
2023/05/09 09:16:40;;;;;;;0.25;0.25;;;;;;;;;;5033303;28;20486;-76
2023/05/09 09:21:53;;;;;;;0.10;0.10;;;;;;;;;;5166215;22;20061;-77
2023/05/09 09:24:23;;;;;;;0.98;0.60;;;;;;;;;;5024152;28;20149;-75
2023/05/09 09:26:50;;;;;;;0.13;0.13;;;;;;;;;;5019215;28;20053;-75
2023/05/09 09:29:17;;;;;;;0.55;0.38;;;;;;;;;;5014840;28;20595;-78
2023/05/09 09:31:44;;;;;;;0.77;0.35;;;;;;;;;;4996382;28;20049;-76
2023/05/09 09:34:13;;;;;;;0.20;0.20;;;;;;;;;;5021173;28;20589;-75
2023/05/09 09:36:39;;;;;;;0.20;0.20;;;;;;;;;;5022172;28;20583;-76
2023/05/09 09:39:07;;;;;;;0.10;0.10;;;;;;;;;;5020776;28;20057;-75
2023/05/09 09:41:34;;;;;;;0.52;0.43;;;;;;;;;;5024122;28;20061;-75
2023/05/09 09:44:07;;;;;;;0.70;0.65;;;;;;;;;;5025160;28;20519;-75
2023/05/09 09:46:43;;;;;;;0.30;0.30;;;;;;;;;;5022921;28;20132;-75
2023/05/09 09:49:13;;;;;;;0.20;0.20;;;;;;;;;;5020881;28;20058;-76
2023/05/09 09:51:40;;;;;;;0.28;0.22;;;;;;;;;;5024294;28;20504;-76
2023/05/09 09:54:07;;;;;;;0.45;0.43;;;;;;;;;;5024055;28;20582;-76
2023/05/09 09:57:00;;;;;;;0.47;0.47;;;;;;;;;;5022907;28;20058;-76
2023/05/09 09:59:27;;;;;;;4.85;0.82;;;;;;;;;;5012826;28;20089;-77
2023/05/09 10:01:53;;;;;;;0.20;0.20;;;;;;;;;;5022931;28;20055;-77
2023/05/09 10:04:20;;;;;;;0.35;0.35;;;;;;;;;;5005914;28;20423;-77
2023/05/09 10:06:52;;;;;;;0.30;0.25;;;;;;;;;;5022826;28;20061;-76
2023/05/09 10:12:30;;;;;;;0.45;0.45;;;;;;;;;;5567230;22;1101842;-75
2023/05/09 10:14:56;;;;;;;0.40;0.40;;;;;;;;;;5028402;28;20053;-76
2023/05/09 10:17:23;;;;;;;0.10;0.10;;;;;;;;;;5045751;28;20060;-76
2023/05/09 10:19:50;;;;;;;0.10;0.10;;;;;;;;;;5045407;28;20064;-76
2023/05/09 10:22:18;;;;;;;0.20;0.20;;;;;;;;;;5038434;28;20146;-76
2023/05/09 10:24:56;;;;;;;0.20;0.20;;;;;;;;;;5043567;28;20053;-76
2023/05/09 10:27:25;;;;;;;0.10;0.10;;;;;;;;;;5044019;28;20060;-76
2023/05/09 10:30:15;;;;;;;0.20;0.20;;;;;;;;;;5044407;28;20085;-76
2023/05/09 10:32:51;;;;;;;0.55;0.40;;;;;;;;;;5043186;28;20053;-76
2023/05/09 10:35:18;;;;;;;0.10;0.10;;;;;;;;;;5039983;28;20060;-76
2023/05/09 10:37:45;;;;;;;0.88;0.60;;;;;;;;;;5045074;28;20052;-76
2023/05/09 10:40:14;;;;;;;0.52;0.30;;;;;;;;;;5041969;28;20565;-76
2023/05/09 10:42:41;;;;;;;0.22;0.22;;;;;;;;;;5044712;28;20478;-77
2023/05/09 10:45:09;;;;;;;0.15;0.15;;;;;;;;;;5042535;28;20964;-77
2023/05/09 10:47:36;;;;;;;0.52;0.40;;;;;;;;;;5044814;28;20164;-78
2023/05/09 10:50:03;;;;;;;0.20;0.20;;;;;;;;;;5043462;28;20057;-77
2023/05/09 10:52:32;;;;;;;0.10;0.10;;;;;;;;;;5043674;28;20140;-78
2023/05/09 10:55:02;;;;;;;0.13;0.13;;;;;;;;;;5044480;28;20064;-79
2023/05/09 10:57:29;;;;;;;0.20;0.20;;;;;;;;;;5044411;28;20148;-78
2023/05/09 10:59:57;;;;;;;0.52;0.52;;;;;;;;;;5043359;28;20057;-77
2023/05/09 11:02:28;;;;;;;0.10;0.10;;;;;;;;;;5041110;28;20096;-78
2023/05/09 11:05:13;;;;;;;0.28;0.28;;;;;;;;;;5043312;28;20673;-78
2023/05/09 11:07:42;;;;;;;0.10;0.10;;;;;;;;;;5045415;28;20058;-79
2023/05/09 11:10:16;;;;;;;0.10;0.10;;;;;;;;;;5042543;28;20551;-78
2023/05/09 11:12:51;;;;;;;0.30;0.30;;;;;;;;;;5042839;28;20529;-77
2023/05/09 11:15:22;;;;;;;0.30;0.30;;;;;;;;;;5044614;28;20058;-78
2023/05/09 11:18:04;;;;;;;0.30;0.30;;;;;;;;;;5047437;28;20231;-78
2023/05/09 11:20:32;;;;;;;0.43;0.32;;;;;;;;;;5044794;28;20050;-78
2023/05/09 11:22:59;;;;;;;0.20;0.20;;;;;;;;;;5045421;28;20754;-78
2023/05/09 11:25:27;;;;;;;0.73;0.73;;;;;;;;;;5044677;28;20424;-78
2023/05/09 11:27:59;;;;;;;0.10;0.10;;;;;;;;;;5043390;28;20057;-78
2023/05/09 11:30:39;;;;;;;0.10;0.10;;;;;;;;;;5043184;28;20133;-77
2023/05/09 11:33:05;;;;;;;0.43;0.40;;;;;;;;;;5042163;28;20060;-78
2023/05/09 11:35:35;;;;;;;0.20;0.20;;;;;;;;;;5036915;28;20054;-77
2023/05/09 11:38:03;;;;;;;0.20;0.20;;;;;;;;;;5031793;28;20549;-78
2023/05/09 11:40:30;;;;;;;0.15;0.15;;;;;;;;;;5044853;28;20068;-77
2023/05/09 11:42:57;;;;;;;0.20;0.20;;;;;;;;;;5044834;28;20061;-78
2023/05/09 11:45:26;;;;;;;0.47;0.35;;;;;;;;;;5041414;28;20058;-78
2023/05/09 11:47:56;;;;;;;0.10;0.10;;;;;;;;;;5043474;28;20120;-78
2023/05/09 11:50:22;;;;;;;0.43;0.38;;;;;;;;;;5042931;28;20570;-78
2023/05/09 11:52:49;;;;;;;0.35;0.35;;;;;;;;;;5040831;28;20064;-78
2023/05/09 11:55:17;;;;;;;0.10;0.10;;;;;;;;;;5042672;28;20135;-78
2023/05/09 11:57:47;;;;;;;0.10;0.10;;;;;;;;;;5043033;28;20049;-78
2023/05/09 12:00:15;;;;;;;1.25;0.30;;;;;;;;;;5044828;28;20049;-77
2023/05/09 12:02:42;;;;;;;0.20;0.20;;;;;;;;;;5040610;28;20136;-78
2023/05/09 12:05:09;;;;;;;0.40;0.22;;;;;;;;;;5042950;28;20134;-78
2023/05/09 12:07:39;;;;;;;0.10;0.10;;;;;;;;;;5040626;28;20669;-78
2023/05/09 12:10:06;;;;;;;0.43;0.43;;;;;;;;;;5043386;28;20092;-78
2023/05/09 12:12:34;;;;;;;0.20;0.20;;;;;;;;;;5042613;28;20057;-78
2023/05/09 12:15:01;;;;;;;0.57;0.30;;;;;;;;;;5042290;28;20068;-78
2023/05/09 12:17:27;;;;;;;0.15;0.15;;;;;;;;;;5027682;28;20049;-79
2023/05/09 12:19:54;;;;;;;0.80;0.45;;;;;;;;;;5033449;28;20547;-79
2023/05/09 12:22:20;;;;;;;0.17;0.17;;;;;;;;;;5042906;28;20057;-79
2023/05/09 12:24:48;;;;;;;0.38;0.38;;;;;;;;;;5041280;28;20299;-78
2023/05/09 12:27:14;;;;;;;0.25;0.25;;;;;;;;;;5042759;28;20057;-78
2023/05/09 12:29:44;;;;;;;0.40;0.40;;;;;;;;;;5042793;28;20053;-78
2023/05/09 12:34:53;;;;;;;0.10;0.10;;;;;;;;;;5454313;22;20046;-80
2023/05/09 12:37:20;;;;;;;1.00;0.80;;;;;;;;;;5033200;28;20054;-79
2023/05/09 12:39:59;;;;;;;0.10;0.10;;;;;;;;;;5039219;28;20156;-79
2023/05/09 12:42:26;;;;;;;0.20;0.20;;;;;;;;;;5025886;28;20053;-81
2023/05/09 12:44:52;;;;;;;0.10;0.10;;;;;;;;;;5011499;28;20435;-80
2023/05/09 12:47:19;;;;;;;0.40;0.40;;;;;;;;;;5047156;28;20447;-80
2023/05/09 12:49:49;;;;;;;0.60;0.60;;;;;;;;;;5021639;28;20058;-79
2023/05/09 12:52:18;;;;;;;0.20;0.20;;;;;;;;;;5006634;28;20058;-79
2023/05/09 12:54:46;;;;;;;0.10;0.10;;;;;;;;;;5023750;28;20081;-79
2023/05/09 12:57:22;;;;;;;0.10;0.10;;;;;;;;;;5023969;28;20058;-78
2023/05/09 12:59:48;;;;;;;0.63;0.63;;;;;;;;;;5025175;28;20128;-77
2023/05/09 13:02:15;;;;;;;0.20;0.20;;;;;;;;;;5004813;28;20173;-78
2023/05/09 13:04:41;;;;;;;0.35;0.30;;;;;;;;;;5024661;28;20058;-77
2023/05/09 13:07:09;;;;;;;0.20;0.20;;;;;;;;;;5034083;28;20061;-78
2023/05/09 13:09:35;;;;;;;0.30;0.30;;;;;;;;;;5026763;28;20137;-78
2023/05/09 13:12:08;;;;;;;0.10;0.10;;;;;;;;;;5013331;28;20499;-78
2023/05/09 13:14:35;;;;;;;0.10;0.10;;;;;;;;;;5021664;28;20097;-80
2023/05/09 13:17:01;;;;;;;0.10;0.10;;;;;;;;;;5023177;28;20136;-79
2023/05/09 13:19:28;;;;;;;0.43;0.38;;;;;;;;;;5036410;28;20088;-78
2023/05/09 13:21:54;;;;;;;0.52;0.38;;;;;;;;;;5032419;28;20051;-78
2023/05/09 13:24:21;;;;;;;1.00;0.45;;;;;;;;;;5024299;28;20087;-79
2023/05/09 13:26:47;;;;;;;0.10;0.10;;;;;;;;;;5026134;28;20056;-76
2023/05/09 13:29:14;;;;;;;2.22;0.80;;;;;;;;;;5024256;28;20062;-78
2023/05/09 13:31:40;;;;;;;0.52;0.30;;;;;;;;;;5026487;28;20062;-79
2023/05/09 13:34:06;;;;;;;0.10;0.10;;;;;;;;;;5028278;28;20568;-78
2023/05/09 13:36:33;;;;;;;0.20;0.20;;;;;;;;;;5019302;28;20049;-78
2023/05/09 13:38:59;;;;;;;0.57;0.57;;;;;;;;;;5024517;28;20101;-78
2023/05/09 13:41:25;;;;;;;0.20;0.20;;;;;;;;;;5021115;28;20065;-78
2023/05/09 13:43:52;;;;;;;0.22;0.22;;;;;;;;;;5005895;28;20293;-78
2023/05/09 13:46:18;;;;;;;0.30;0.30;;;;;;;;;;5023469;28;20058;-78
2023/05/09 13:48:46;;;;;;;0.20;0.20;;;;;;;;;;5026068;28;20108;-78
2023/05/09 13:51:13;;;;;;;0.63;0.50;;;;;;;;;;5022029;28;20452;-77
2023/05/09 13:53:39;;;;;;;0.10;0.10;;;;;;;;;;5028165;28;20504;-78
2023/05/09 13:56:07;;;;;;;0.10;0.10;;;;;;;;;;5028324;28;20158;-79
2023/05/09 13:58:34;;;;;;;0.20;0.20;;;;;;;;;;5026993;28;20068;-78
2023/05/09 14:01:01;;;;;;;0.10;0.10;;;;;;;;;;5026549;28;20528;-78
2023/05/09 14:03:28;;;;;;;0.30;0.30;;;;;;;;;;5025264;28;20054;-78
2023/05/09 14:05:55;;;;;;;0.20;0.20;;;;;;;;;;5026794;28;20061;-78
2023/05/09 14:08:21;;;;;;;0.13;0.13;;;;;;;;;;5025756;28;20529;-78
2023/05/09 14:10:47;;;;;;;0.20;0.20;;;;;;;;;;5025200;28;21023;-80
2023/05/09 14:13:14;;;;;;;0.20;0.20;;;;;;;;;;5024799;28;20058;-77
2023/05/09 14:15:41;;;;;;;0.30;0.30;;;;;;;;;;5021474;28;20137;-80
2023/05/09 14:18:07;;;;;;;0.10;0.10;;;;;;;;;;5024204;28;20053;-77
2023/05/09 14:20:36;;;;;;;0.20;0.20;;;;;;;;;;5020112;28;20170;-78
2023/05/09 14:23:02;;;;;;;0.47;0.47;;;;;;;;;;5025794;28;20061;-82
2023/05/09 14:25:28;;;;;;;0.30;0.28;;;;;;;;;;5018008;28;20054;-79
2023/05/09 14:27:55;;;;;;;0.73;0.73;;;;;;;;;;5021419;28;20660;-78
2023/05/09 14:30:21;;;;;;;0.10;0.10;;;;;;;;;;5022935;28;20062;-78
2023/05/09 14:32:47;;;;;;;0.20;0.20;;;;;;;;;;5021201;28;20053;-79
2023/05/09 14:35:14;;;;;;;0.20;0.20;;;;;;;;;;5022088;28;20053;-79
2023/05/09 14:37:40;;;;;;;0.13;0.13;;;;;;;;;;5022234;28;20108;-78
2023/05/09 14:40:08;;;;;;;0.20;0.20;;;;;;;;;;5008789;28;20153;-79
2023/05/09 14:42:35;;;;;;;0.15;0.15;;;;;;;;;;5019640;28;20054;-78
2023/05/09 14:45:03;;;;;;;0.40;0.40;;;;;;;;;;5034342;28;20066;-77
2023/05/09 14:47:29;;;;;;;0.45;0.45;;;;;;;;;;5023085;28;20066;-78
2023/05/09 14:49:56;;;;;;;0.10;0.10;;;;;;;;;;5025705;28;20607;-79
2023/05/09 14:55:06;;;;;;;0.20;0.20;;;;;;;;;;5647983;22;20077;-81
2023/05/09 14:57:32;;;;;;;0.22;0.22;;;;;;;;;;5032569;28;20058;-83
2023/05/09 14:59:58;;;;;;;2.05;0.30;;;;;;;;;;5039643;28;20064;-80
2023/05/09 15:02:45;;;;;;;0.10;0.10;;;;;;;;;;5041940;28;20079;-79
2023/05/09 15:07:49;;;;;;;1.35;0.45;;;;;;;;;;5891640;22;20049;-75
2023/05/09 15:10:15;;;;;;;0.40;0.40;;;;;;;;;;5060887;28;20167;-78
2023/05/09 15:12:42;;;;;;;0.20;0.20;;;;;;;;;;5061461;28;20626;-79
2023/05/09 15:15:16;;;;;;;0.10;0.10;;;;;;;;;;5064300;28;20148;-81
2023/05/09 15:17:46;;;;;;;0.10;0.10;;;;;;;;;;5059334;28;20045;-81
2023/05/09 15:20:14;;;;;;;0.20;0.20;;;;;;;;;;5049069;28;20137;-79
2023/05/09 15:22:57;;;;;;;0.10;0.10;;;;;;;;;;5067960;28;20067;-80
2023/05/09 15:25:26;;;;;;;0.10;0.10;;;;;;;;;;5066365;28;20052;-80
2023/05/09 15:27:52;;;;;;;0.10;0.10;;;;;;;;;;5065967;28;20061;-80
2023/05/09 15:30:20;;;;;;;0.10;0.10;;;;;;;;;;5062465;28;20542;-81
2023/05/09 15:32:46;;;;;;;0.30;0.30;;;;;;;;;;5061279;28;20119;-83
2023/05/09 15:35:14;;;;;;;0.20;0.20;;;;;;;;;;5068001;28;20080;-80